Time;durP1;ratioP1;P1;durP2;ratioP2;P2;SDS_P1;SDS_P2;PMS_P1;PMS_P2;Temp;Humidity;BMP_temperature;BMP_pressure;BME280_temperature;BME280_humidity;BME280_pressure;Samples;Min_cycle;Max_cycle;Signal;HPM_P1;HPM_P2
2021/10/07 00:00:06;;;;;;;1.70;1.60;;;;;;;;;;5035224;28;20823;-46
2021/10/07 00:02:32;;;;;;;2.47;1.80;;;;;;;;;;5032184;28;20303;-46
2021/10/07 00:04:58;;;;;;;1.77;1.60;;;;;;;;;;5033328;28;20323;-46
2021/10/07 00:07:24;;;;;;;2.08;1.90;;;;;;;;;;5035987;28;20187;-46
2021/10/07 00:09:50;;;;;;;2.20;1.95;;;;;;;;;;5031155;28;20215;-46
2021/10/07 00:12:16;;;;;;;3.25;1.98;;;;;;;;;;5035479;28;20266;-46
2021/10/07 00:14:42;;;;;;;1.90;1.70;;;;;;;;;;5032056;28;20601;-46
2021/10/07 00:17:08;;;;;;;1.83;1.60;;;;;;;;;;5035931;28;20172;-46
2021/10/07 00:19:34;;;;;;;2.65;1.90;;;;;;;;;;5028137;28;20172;-46
2021/10/07 00:22:00;;;;;;;1.40;1.30;;;;;;;;;;5035511;28;20184;-46
2021/10/07 00:24:26;;;;;;;1.58;1.38;;;;;;;;;;5026567;28;20192;-46
2021/10/07 00:26:52;;;;;;;1.70;1.60;;;;;;;;;;5028244;28;20188;-46
2021/10/07 00:31:49;;;;;;;1.70;1.42;;;;;;;;;;5015969;28;20181;-46
2021/10/07 00:39:10;;;;;;;1.58;1.45;;;;;;;;;;5018291;28;20212;-46
2021/10/07 00:41:39;;;;;;;2.25;1.45;;;;;;;;;;5015903;28;20165;-46
2021/10/07 00:44:06;;;;;;;1.50;1.40;;;;;;;;;;5016643;28;20172;-46
2021/10/07 00:46:42;;;;;;;2.15;1.80;;;;;;;;;;5015342;28;20288;-46
2021/10/07 00:49:08;;;;;;;2.42;1.83;;;;;;;;;;5015881;28;20246;-46
2021/10/07 00:51:34;;;;;;;1.45;1.35;;;;;;;;;;5015894;28;20173;-46
2021/10/07 00:54:01;;;;;;;1.60;1.50;;;;;;;;;;5018324;28;20422;-46
2021/10/07 00:56:27;;;;;;;1.38;1.13;;;;;;;;;;5035266;28;20168;-46
2021/10/07 00:58:53;;;;;;;1.38;1.27;;;;;;;;;;5034219;28;20185;-46
2021/10/07 01:01:19;;;;;;;1.27;1.17;;;;;;;;;;5028295;28;20208;-46
2021/10/07 01:03:45;;;;;;;2.03;1.58;;;;;;;;;;5023239;28;20198;-46
2021/10/07 01:06:11;;;;;;;1.60;1.50;;;;;;;;;;5030358;28;20577;-46
2021/10/07 01:08:37;;;;;;;1.50;1.40;;;;;;;;;;5030151;28;20176;-46
2021/10/07 01:11:03;;;;;;;1.48;1.25;;;;;;;;;;5030358;28;20206;-46
2021/10/07 01:13:29;;;;;;;1.50;1.40;;;;;;;;;;5017296;28;20543;-46
2021/10/07 01:16:02;;;;;;;1.55;1.40;;;;;;;;;;5024135;28;20645;-46
2021/10/07 01:18:28;;;;;;;1.95;1.30;;;;;;;;;;5028932;28;20560;-46
2021/10/07 01:20:54;;;;;;;1.77;1.27;;;;;;;;;;5015137;28;20279;-46
2021/10/07 01:23:20;;;;;;;2.88;1.45;;;;;;;;;;5020047;28;20446;-46
2021/10/07 01:25:46;;;;;;;1.40;1.30;;;;;;;;;;5018332;28;20322;-46
2021/10/07 01:28:12;;;;;;;1.83;1.50;;;;;;;;;;5033754;28;20173;-46
2021/10/07 01:30:38;;;;;;;1.35;1.25;;;;;;;;;;5034207;28;20253;-46
2021/10/07 01:33:04;;;;;;;1.30;1.20;;;;;;;;;;5026015;28;20466;-46
2021/10/07 01:35:30;;;;;;;8.90;1.35;;;;;;;;;;5017781;28;20200;-46
2021/10/07 01:37:56;;;;;;;1.20;1.20;;;;;;;;;;5016431;28;20172;-46
2021/10/07 01:40:22;;;;;;;1.30;1.20;;;;;;;;;;5016330;28;20263;-46
2021/10/07 01:42:48;;;;;;;1.88;1.38;;;;;;;;;;5014575;28;20520;-46
2021/10/07 01:45:14;;;;;;;1.40;1.30;;;;;;;;;;5018122;28;20187;-46
2021/10/07 01:47:41;;;;;;;1.20;1.10;;;;;;;;;;5014700;28;20183;-46
2021/10/07 01:50:09;;;;;;;1.38;1.27;;;;;;;;;;5014987;28;20208;-46
2021/10/07 01:52:35;;;;;;;1.20;1.10;;;;;;;;;;5024597;28;20176;-46
2021/10/07 01:55:01;;;;;;;1.67;1.20;;;;;;;;;;5031813;28;20190;-46
2021/10/07 01:57:27;;;;;;;1.30;1.17;;;;;;;;;;5034270;28;20527;-46
2021/10/07 01:59:53;;;;;;;1.58;1.23;;;;;;;;;;5027766;28;20198;-46
2021/10/07 02:02:19;;;;;;;1.45;1.33;;;;;;;;;;5014464;28;20209;-46
2021/10/07 02:04:45;;;;;;;1.40;1.30;;;;;;;;;;5026823;28;20179;-46
2021/10/07 02:07:11;;;;;;;1.20;1.10;;;;;;;;;;5033812;28;20172;-46
2021/10/07 02:09:37;;;;;;;1.35;1.25;;;;;;;;;;5031713;28;20199;-46
2021/10/07 02:12:03;;;;;;;1.25;1.15;;;;;;;;;;5030639;28;20173;-46
2021/10/07 02:14:29;;;;;;;1.70;1.40;;;;;;;;;;5022068;28;20226;-46
2021/10/07 02:16:55;;;;;;;1.30;1.20;;;;;;;;;;5033973;28;20191;-46
2021/10/07 02:19:21;;;;;;;1.63;1.30;;;;;;;;;;5023159;28;20184;-46
2021/10/07 02:21:47;;;;;;;1.20;1.10;;;;;;;;;;5014894;28;20569;-47
2021/10/07 02:24:13;;;;;;;1.15;1.05;;;;;;;;;;5032362;28;20188;-46
2021/10/07 02:26:39;;;;;;;1.25;1.08;;;;;;;;;;5032677;28;20536;-46
2021/10/07 02:29:06;;;;;;;1.20;1.10;;;;;;;;;;5033907;28;20664;-46
2021/10/07 02:31:32;;;;;;;1.13;1.02;;;;;;;;;;5034344;28;20170;-46
2021/10/07 02:33:58;;;;;;;1.08;0.93;;;;;;;;;;5028450;28;20172;-46
2021/10/07 02:36:24;;;;;;;1.17;1.08;;;;;;;;;;5014254;28;20180;-46
2021/10/07 02:38:50;;;;;;;1.42;1.13;;;;;;;;;;5020113;28;20189;-46
2021/10/07 02:41:16;;;;;;;1.35;1.17;;;;;;;;;;5037613;28;20274;-46
2021/10/07 02:43:43;;;;;;;1.70;1.17;;;;;;;;;;5036244;28;20259;-46
2021/10/07 02:46:09;;;;;;;1.23;0.98;;;;;;;;;;5032072;28;20223;-46
2021/10/07 02:48:35;;;;;;;1.33;1.23;;;;;;;;;;5028158;28;20184;-46
2021/10/07 02:51:01;;;;;;;1.15;1.05;;;;;;;;;;5025553;28;20277;-46
2021/10/07 02:53:30;;;;;;;0.90;0.90;;;;;;;;;;5021352;28;20195;-46
2021/10/07 02:55:56;;;;;;;1.05;1.00;;;;;;;;;;5036818;28;20186;-46
2021/10/07 02:58:22;;;;;;;0.95;0.95;;;;;;;;;;5024825;28;20570;-46
2021/10/07 03:00:48;;;;;;;1.00;1.00;;;;;;;;;;5032139;28;20215;-46
2021/10/07 03:03:14;;;;;;;0.90;0.90;;;;;;;;;;5036746;28;20618;-46
2021/10/07 03:05:40;;;;;;;1.48;1.00;;;;;;;;;;5034948;28;20190;-46
2021/10/07 03:08:06;;;;;;;1.27;1.17;;;;;;;;;;5036608;28;20183;-46
2021/10/07 03:10:32;;;;;;;0.98;0.98;;;;;;;;;;5034590;28;20200;-46
2021/10/07 03:12:58;;;;;;;0.68;0.60;;;;;;;;;;5028424;28;20177;-46
2021/10/07 03:15:24;;;;;;;1.20;1.00;;;;;;;;;;5031406;28;20168;-46
2021/10/07 03:17:50;;;;;;;0.88;0.88;;;;;;;;;;5020783;28;20571;-46
2021/10/07 03:20:16;;;;;;;0.80;0.80;;;;;;;;;;5031835;28;20175;-46
2021/10/07 03:22:42;;;;;;;1.13;0.90;;;;;;;;;;5034313;28;20180;-46
2021/10/07 03:25:08;;;;;;;0.80;0.80;;;;;;;;;;5036032;28;20180;-46
2021/10/07 03:27:35;;;;;;;1.20;0.80;;;;;;;;;;5037051;28;20175;-46
2021/10/07 03:30:01;;;;;;;1.27;1.10;;;;;;;;;;5034465;28;20454;-46
2021/10/07 03:32:27;;;;;;;0.90;0.90;;;;;;;;;;5017079;28;20188;-46
2021/10/07 03:34:54;;;;;;;0.75;0.75;;;;;;;;;;5016474;28;20173;-46
2021/10/07 03:37:20;;;;;;;1.75;0.90;;;;;;;;;;5017065;28;20204;-46
2021/10/07 03:39:46;;;;;;;0.93;0.90;;;;;;;;;;5023349;28;20474;-46
2021/10/07 03:42:12;;;;;;;0.82;0.82;;;;;;;;;;5036414;28;20195;-46
2021/10/07 03:44:38;;;;;;;1.10;1.00;;;;;;;;;;5022998;28;20188;-46
2021/10/07 03:47:04;;;;;;;1.15;0.88;;;;;;;;;;5026333;28;20188;-46
2021/10/07 03:49:30;;;;;;;0.93;0.90;;;;;;;;;;5015935;28;20554;-46
2021/10/07 03:51:56;;;;;;;0.70;0.70;;;;;;;;;;5016582;28;20173;-46
2021/10/07 03:54:22;;;;;;;0.80;0.80;;;;;;;;;;5018591;28;20940;-46
2021/10/07 03:56:48;;;;;;;0.98;0.85;;;;;;;;;;5016621;28;20180;-46
2021/10/07 03:59:14;;;;;;;1.13;1.02;;;;;;;;;;5016762;28;20180;-46
2021/10/07 04:01:40;;;;;;;1.08;0.98;;;;;;;;;;5023350;28;20270;-46
2021/10/07 04:04:06;;;;;;;1.45;0.80;;;;;;;;;;5027187;28;20180;-46
2021/10/07 04:06:32;;;;;;;1.15;0.80;;;;;;;;;;5034126;28;20176;-46
2021/10/07 04:08:58;;;;;;;0.85;0.80;;;;;;;;;;5035677;28;20200;-46
2021/10/07 04:11:24;;;;;;;2.03;1.25;;;;;;;;;;5022805;28;20478;-46
2021/10/07 04:13:49;;;;;;;0.85;0.80;;;;;;;;;;5035323;28;20164;-46
2021/10/07 04:16:17;;;;;;;1.40;0.98;;;;;;;;;;5024496;28;20247;-46
2021/10/07 04:18:44;;;;;;;0.80;0.77;;;;;;;;;;5016315;28;20662;-46
2021/10/07 04:21:10;;;;;;;1.55;1.10;;;;;;;;;;5017057;28;20732;-46
2021/10/07 04:23:36;;;;;;;1.08;0.90;;;;;;;;;;5034448;28;20230;-46
2021/10/07 04:26:03;;;;;;;1.33;1.02;;;;;;;;;;5035655;28;20816;-46
2021/10/07 04:28:28;;;;;;;15.23;1.80;;;;;;;;;;5035764;28;20176;-46
2021/10/07 04:30:54;;;;;;;4.32;1.15;;;;;;;;;;5016579;28;20485;-46
2021/10/07 04:33:20;;;;;;;2.80;1.10;;;;;;;;;;5015740;28;20278;-46
2021/10/07 04:35:47;;;;;;;2.20;1.30;;;;;;;;;;5025701;28;20183;-46
2021/10/07 04:38:13;;;;;;;2.00;1.00;;;;;;;;;;5032877;28;20175;-46
2021/10/07 04:40:39;;;;;;;2.97;1.27;;;;;;;;;;5016044;28;20557;-46
2021/10/07 04:43:05;;;;;;;4.90;1.20;;;;;;;;;;5020914;28;20184;-46
2021/10/07 04:45:31;;;;;;;3.63;1.10;;;;;;;;;;5021967;28;20202;-46
2021/10/07 04:47:57;;;;;;;2.85;1.45;;;;;;;;;;5015606;28;20454;-46
2021/10/07 04:50:23;;;;;;;1.80;0.93;;;;;;;;;;5021009;28;20192;-46
2021/10/07 04:52:49;;;;;;;1.73;1.02;;;;;;;;;;5033569;28;20172;-46
2021/10/07 04:55:15;;;;;;;5.25;1.55;;;;;;;;;;5022213;28;20204;-46
2021/10/07 04:57:41;;;;;;;1.80;1.20;;;;;;;;;;5017790;28;20177;-46
2021/10/07 05:00:07;;;;;;;3.15;1.20;;;;;;;;;;5032483;28;20253;-46
2021/10/07 05:02:37;;;;;;;2.55;1.00;;;;;;;;;;5029243;28;20188;-46
2021/10/07 05:05:04;;;;;;;1.40;1.10;;;;;;;;;;5027414;28;20218;-46
2021/10/07 05:07:30;;;;;;;3.05;1.33;;;;;;;;;;5024823;28;20560;-46
2021/10/07 05:09:56;;;;;;;7.45;1.42;;;;;;;;;;5030301;28;20204;-46
2021/10/07 05:12:22;;;;;;;2.40;1.30;;;;;;;;;;5024976;28;20192;-46
2021/10/07 05:14:48;;;;;;;3.67;1.33;;;;;;;;;;5019416;28;20604;-46
2021/10/07 05:17:14;;;;;;;3.53;1.30;;;;;;;;;;5029124;28;20184;-46
2021/10/07 05:19:40;;;;;;;2.28;1.45;;;;;;;;;;5029651;28;20184;-46
2021/10/07 05:22:07;;;;;;;6.25;1.52;;;;;;;;;;5033643;28;20191;-46
2021/10/07 05:24:33;;;;;;;2.38;1.30;;;;;;;;;;5025057;28;20264;-46
2021/10/07 05:26:59;;;;;;;3.10;1.40;;;;;;;;;;5014997;28;20300;-46
2021/10/07 05:29:24;;;;;;;2.88;1.50;;;;;;;;;;5020681;28;20575;-46
2021/10/07 05:31:51;;;;;;;3.60;1.65;;;;;;;;;;5019392;28;20239;-46
2021/10/07 05:34:17;;;;;;;4.97;1.60;;;;;;;;;;5033437;28;20229;-46
2021/10/07 05:36:44;;;;;;;2.88;1.55;;;;;;;;;;5022317;28;20177;-46
2021/10/07 05:39:10;;;;;;;2.72;1.50;;;;;;;;;;5020102;28;20168;-46
2021/10/07 05:41:36;;;;;;;2.88;1.63;;;;;;;;;;5034033;28;20589;-46
2021/10/07 05:44:02;;;;;;;2.03;1.77;;;;;;;;;;5033821;28;20219;-46
2021/10/07 05:46:28;;;;;;;6.07;1.60;;;;;;;;;;5023358;28;20191;-46
2021/10/07 05:48:53;;;;;;;1.88;1.40;;;;;;;;;;5030724;28;20180;-46
2021/10/07 05:51:19;;;;;;;2.88;1.65;;;;;;;;;;5016981;28;20212;-46
2021/10/07 05:53:46;;;;;;;4.65;1.60;;;;;;;;;;5022023;28;20259;-46
2021/10/07 05:56:11;;;;;;;3.80;2.00;;;;;;;;;;5018275;28;20588;-46
2021/10/07 05:58:38;;;;;;;2.78;1.75;;;;;;;;;;5027373;28;20184;-46
2021/10/07 06:01:04;;;;;;;2.35;1.35;;;;;;;;;;5034127;28;20188;-46
2021/10/07 06:03:30;;;;;;;2.28;1.55;;;;;;;;;;5028523;28;20207;-46
2021/10/07 06:05:56;;;;;;;4.43;1.60;;;;;;;;;;5033378;28;20184;-46
2021/10/07 06:08:21;;;;;;;3.15;2.05;;;;;;;;;;5033645;28;20385;-46
2021/10/07 06:10:47;;;;;;;3.75;1.60;;;;;;;;;;5016444;28;20262;-46
2021/10/07 06:13:13;;;;;;;2.17;1.42;;;;;;;;;;5018652;28;20259;-46
2021/10/07 06:15:39;;;;;;;3.13;1.40;;;;;;;;;;5037853;28;20196;-46
2021/10/07 06:18:05;;;;;;;3.50;1.63;;;;;;;;;;5037042;28;20179;-46
2021/10/07 06:20:33;;;;;;;4.85;1.80;;;;;;;;;;5019552;28;20223;-46
2021/10/07 06:23:01;;;;;;;1.95;1.48;;;;;;;;;;5037466;28;20252;-46
2021/10/07 06:25:27;;;;;;;3.83;1.70;;;;;;;;;;5019411;28;20180;-46
2021/10/07 06:27:54;;;;;;;3.20;1.60;;;;;;;;;;5018151;28;20169;-46
2021/10/07 06:30:20;;;;;;;2.42;1.60;;;;;;;;;;5033033;28;20207;-46
2021/10/07 06:32:47;;;;;;;3.03;1.80;;;;;;;;;;5037779;28;20437;-46
2021/10/07 06:35:13;;;;;;;2.70;1.80;;;;;;;;;;5018622;28;20204;-46
2021/10/07 06:37:40;;;;;;;3.95;1.52;;;;;;;;;;5025837;28;20176;-46
2021/10/07 06:40:07;;;;;;;2.03;1.80;;;;;;;;;;5037840;28;20306;-46
2021/10/07 06:42:33;;;;;;;1.40;1.23;;;;;;;;;;5037950;28;20175;-46
2021/10/07 06:44:59;;;;;;;4.10;1.90;;;;;;;;;;5036030;28;20876;-46
2021/10/07 06:47:26;;;;;;;2.78;1.77;;;;;;;;;;5037754;28;20164;-46
2021/10/07 06:49:52;;;;;;;2.03;1.52;;;;;;;;;;5037308;28;20556;-46
2021/10/07 06:52:18;;;;;;;2.03;1.40;;;;;;;;;;5035121;28;20172;-46
2021/10/07 06:54:44;;;;;;;2.00;1.40;;;;;;;;;;5027260;28;20424;-46
2021/10/07 06:57:10;;;;;;;1.90;1.50;;;;;;;;;;5030384;28;20187;-46
2021/10/07 06:59:36;;;;;;;2.20;1.38;;;;;;;;;;5017504;28;20272;-46
2021/10/07 07:02:02;;;;;;;1.80;1.60;;;;;;;;;;5017856;28;20556;-46
2021/10/07 07:04:28;;;;;;;2.33;1.40;;;;;;;;;;5026206;28;20609;-46
2021/10/07 07:06:54;;;;;;;2.85;1.70;;;;;;;;;;5037490;28;20467;-46
2021/10/07 07:09:20;;;;;;;2.88;1.50;;;;;;;;;;5032154;28;20187;-46
2021/10/07 07:11:46;;;;;;;4.18;1.50;;;;;;;;;;5017515;28;20177;-46
2021/10/07 07:14:12;;;;;;;2.55;1.52;;;;;;;;;;5024096;28;20290;-46
2021/10/07 07:16:38;;;;;;;2.55;2.30;;;;;;;;;;5037463;28;20239;-46
2021/10/07 07:19:05;;;;;;;2.28;2.03;;;;;;;;;;5036928;28;20184;-46
2021/10/07 07:21:33;;;;;;;2.20;1.40;;;;;;;;;;5036569;28;20271;-46
2021/10/07 07:24:00;;;;;;;2.00;1.45;;;;;;;;;;5036144;28;20187;-46
2021/10/07 07:26:27;;;;;;;2.35;1.40;;;;;;;;;;5035056;28;20211;-46
2021/10/07 07:28:53;;;;;;;1.95;1.30;;;;;;;;;;5019678;28;20263;-46
2021/10/07 07:31:19;;;;;;;1.90;1.30;;;;;;;;;;5018655;28;20211;-46
2021/10/07 07:33:48;;;;;;;2.35;1.60;;;;;;;;;;5035506;28;20190;-46
2021/10/07 07:36:17;;;;;;;1.48;1.38;;;;;;;;;;5036837;28;20176;-46
2021/10/07 07:38:43;;;;;;;2.70;1.65;;;;;;;;;;5035629;28;20439;-46
2021/10/07 07:41:12;;;;;;;1.35;1.25;;;;;;;;;;5017138;28;20169;-46
2021/10/07 07:43:39;;;;;;;2.50;1.70;;;;;;;;;;5025672;28;20262;-46
2021/10/07 07:46:05;;;;;;;2.28;1.33;;;;;;;;;;5035978;28;20266;-46
2021/10/07 07:48:31;;;;;;;2.03;1.55;;;;;;;;;;5036466;28;20633;-46
2021/10/07 07:50:57;;;;;;;1.70;1.60;;;;;;;;;;5036757;28;20250;-46
2021/10/07 07:53:23;;;;;;;2.22;1.33;;;;;;;;;;5026333;28;20180;-46
2021/10/07 07:55:49;;;;;;;1.67;1.48;;;;;;;;;;5024531;28;20621;-46
2021/10/07 07:58:17;;;;;;;2.13;1.70;;;;;;;;;;5035849;28;20206;-46
2021/10/07 08:00:43;;;;;;;1.50;1.40;;;;;;;;;;5023468;28;20199;-46
2021/10/07 08:03:09;;;;;;;1.52;1.42;;;;;;;;;;5020494;28;20925;-46
2021/10/07 08:05:35;;;;;;;1.63;1.40;;;;;;;;;;5034676;28;20635;-46
2021/10/07 08:08:01;;;;;;;1.40;1.30;;;;;;;;;;5035958;28;20201;-46
2021/10/07 08:10:27;;;;;;;1.35;1.15;;;;;;;;;;5034991;28;20203;-46
2021/10/07 08:12:53;;;;;;;1.98;1.30;;;;;;;;;;5035804;28;20471;-46
2021/10/07 08:15:19;;;;;;;2.60;1.67;;;;;;;;;;5035711;28;20196;-46
2021/10/07 08:17:45;;;;;;;1.63;1.13;;;;;;;;;;5029707;28;20467;-46
2021/10/07 08:20:12;;;;;;;2.50;1.45;;;;;;;;;;5035218;28;20179;-46
2021/10/07 08:22:39;;;;;;;2.30;1.33;;;;;;;;;;5034744;28;20183;-46
2021/10/07 08:25:05;;;;;;;1.67;1.10;;;;;;;;;;5019508;28;20716;-46
2021/10/07 08:27:31;;;;;;;1.95;1.30;;;;;;;;;;5016148;28;20176;-46
2021/10/07 08:29:58;;;;;;;1.98;1.10;;;;;;;;;;5015929;28;20204;-46
2021/10/07 08:32:24;;;;;;;1.10;1.00;;;;;;;;;;5016299;28;20236;-46
2021/10/07 08:34:50;;;;;;;1.23;1.13;;;;;;;;;;5026064;28;20184;-46
2021/10/07 08:37:16;;;;;;;1.23;1.13;;;;;;;;;;5035686;28;20168;-46
2021/10/07 08:39:42;;;;;;;1.58;1.30;;;;;;;;;;5035338;28;20289;-46
2021/10/07 08:42:08;;;;;;;1.60;1.50;;;;;;;;;;5035301;28;20561;-46
2021/10/07 08:44:34;;;;;;;1.42;1.33;;;;;;;;;;5030630;28;20219;-46
2021/10/07 08:47:00;;;;;;;2.00;1.48;;;;;;;;;;5015869;28;20182;-46
2021/10/07 08:49:28;;;;;;;2.38;1.20;;;;;;;;;;5015589;28;20177;-46
2021/10/07 08:51:55;;;;;;;1.13;1.08;;;;;;;;;;5027948;28;20176;-45
2021/10/07 08:54:21;;;;;;;1.55;1.33;;;;;;;;;;5026563;28;20172;-46
2021/10/07 08:56:49;;;;;;;1.75;1.33;;;;;;;;;;5034372;28;20267;-46
2021/10/07 08:59:16;;;;;;;1.58;1.38;;;;;;;;;;5033730;28;20176;-46
2021/10/07 09:01:46;;;;;;;2.70;1.40;;;;;;;;;;5035289;28;20180;-46
2021/10/07 09:04:31;;;;;;;1.83;1.23;;;;;;;;;;5033174;28;20195;-46
2021/10/07 09:06:58;;;;;;;1.95;1.58;;;;;;;;;;5034851;28;20176;-46
2021/10/07 09:09:25;;;;;;;1.83;1.60;;;;;;;;;;5017753;28;20187;-46
2021/10/07 09:11:55;;;;;;;1.85;1.10;;;;;;;;;;5015328;28;20255;-46
2021/10/07 09:14:29;;;;;;;1.30;1.20;;;;;;;;;;5014725;28;20192;-46
2021/10/07 09:16:56;;;;;;;1.17;1.13;;;;;;;;;;5025220;28;20176;-46
2021/10/07 09:19:32;;;;;;;1.25;1.15;;;;;;;;;;5029640;28;20179;-46
2021/10/07 09:22:00;;;;;;;1.77;1.40;;;;;;;;;;5016125;28;20504;-46
2021/10/07 09:24:27;;;;;;;1.30;1.20;;;;;;;;;;5029551;28;20263;-46
2021/10/07 09:26:54;;;;;;;1.13;1.00;;;;;;;;;;5034816;28;20255;-46
2021/10/07 09:29:34;;;;;;;1.35;1.00;;;;;;;;;;5027204;28;20199;-46
2021/10/07 09:32:00;;;;;;;1.80;1.20;;;;;;;;;;5020849;28;20179;-46
2021/10/07 09:34:37;;;;;;;1.63;1.10;;;;;;;;;;5018104;28;20177;-46
2021/10/07 09:37:15;;;;;;;1.38;1.27;;;;;;;;;;5016345;28;20185;-46
2021/10/07 09:39:46;;;;;;;1.48;1.00;;;;;;;;;;5015252;28;20216;-46
2021/10/07 09:42:16;;;;;;;1.58;0.98;;;;;;;;;;5014716;28;20210;-46
2021/10/07 09:44:56;;;;;;;1.80;1.58;;;;;;;;;;5014349;28;20172;-46
2021/10/07 09:47:29;;;;;;;1.52;1.10;;;;;;;;;;5013977;28;20527;-46
2021/10/07 09:50:12;;;;;;;1.77;1.10;;;;;;;;;;5018110;28;20231;-46
2021/10/07 09:52:38;;;;;;;1.90;1.15;;;;;;;;;;5014872;28;20268;-46
2021/10/07 09:55:08;;;;;;;3.28;1.30;;;;;;;;;;5014139;28;20317;-46
2021/10/07 09:57:34;;;;;;;1.88;1.08;;;;;;;;;;5014876;28;20161;-46
2021/10/07 10:00:02;;;;;;;1.42;1.13;;;;;;;;;;5014572;28;20253;-46
2021/10/07 10:02:28;;;;;;;1.85;1.15;;;;;;;;;;5018368;28;20207;-46
2021/10/07 10:04:57;;;;;;;2.60;0.90;;;;;;;;;;5032367;28;20180;-46
2021/10/07 10:07:23;;;;;;;1.60;0.90;;;;;;;;;;5032639;28;20572;-46
2021/10/07 10:09:49;;;;;;;1.77;1.02;;;;;;;;;;5024759;28;20214;-46
2021/10/07 10:12:16;;;;;;;2.47;1.23;;;;;;;;;;5024317;28;20272;-46
2021/10/07 10:14:43;;;;;;;1.20;1.10;;;;;;;;;;5024365;28;20196;-46
2021/10/07 10:17:10;;;;;;;1.48;1.05;;;;;;;;;;5014512;28;20255;-46
2021/10/07 10:19:36;;;;;;;3.50;1.30;;;;;;;;;;5014352;28;20180;-46
2021/10/07 10:22:03;;;;;;;2.25;1.00;;;;;;;;;;5015671;28;20180;-46
2021/10/07 10:24:29;;;;;;;1.17;1.00;;;;;;;;;;5017266;28;20385;-46
2021/10/07 10:27:00;;;;;;;1.75;1.17;;;;;;;;;;5017500;28;20191;-46
2021/10/07 10:29:28;;;;;;;0.80;0.80;;;;;;;;;;5014416;28;20578;-46
2021/10/07 10:31:54;;;;;;;0.98;0.95;;;;;;;;;;5013301;28;20180;-46
2021/10/07 10:34:21;;;;;;;1.10;0.80;;;;;;;;;;5022333;28;20184;-46
2021/10/07 10:36:51;;;;;;;1.17;0.80;;;;;;;;;;5034149;28;20179;-46
2021/10/07 10:39:26;;;;;;;1.13;1.02;;;;;;;;;;5033929;28;20543;-46
2021/10/07 10:41:59;;;;;;;1.45;0.95;;;;;;;;;;5029070;28;20482;-46
2021/10/07 10:44:28;;;;;;;0.75;0.70;;;;;;;;;;5013736;28;20447;-46
2021/10/07 10:47:01;;;;;;;2.00;1.10;;;;;;;;;;5014435;28;20207;-46
2021/10/07 10:49:36;;;;;;;1.10;0.80;;;;;;;;;;5014411;28;20173;-46
2021/10/07 10:52:15;;;;;;;1.02;0.80;;;;;;;;;;5015410;28;20172;-46
2021/10/07 10:55:04;;;;;;;1.02;0.88;;;;;;;;;;5013604;28;20211;-46
2021/10/07 10:57:50;;;;;;;0.95;0.80;;;;;;;;;;5014156;28;20189;-46
2021/10/07 11:00:18;;;;;;;0.90;0.68;;;;;;;;;;5022257;28;20279;-46
2021/10/07 11:02:48;;;;;;;1.88;0.75;;;;;;;;;;5018474;28;20185;-46
2021/10/07 11:05:18;;;;;;;1.60;1.00;;;;;;;;;;5030292;28;20180;-46
2021/10/07 11:07:44;;;;;;;2.35;0.93;;;;;;;;;;5017441;28;20215;-46
2021/10/07 11:10:13;;;;;;;1.15;0.82;;;;;;;;;;5017624;28;20212;-46
2021/10/07 11:12:49;;;;;;;0.98;0.90;;;;;;;;;;5017491;28;20251;-45
2021/10/07 11:15:16;;;;;;;0.85;0.80;;;;;;;;;;5021993;28;20271;-46
2021/10/07 11:17:43;;;;;;;1.13;0.90;;;;;;;;;;5026754;28;20174;-46
2021/10/07 11:20:10;;;;;;;0.80;0.77;;;;;;;;;;5036803;28;20263;-46
2021/10/07 11:22:36;;;;;;;1.00;0.68;;;;;;;;;;5036408;28;20192;-46
2021/10/07 11:25:05;;;;;;;1.00;0.75;;;;;;;;;;5036054;28;20179;-46
2021/10/07 11:27:31;;;;;;;1.02;0.93;;;;;;;;;;5035379;28;20516;-46
2021/10/07 11:29:57;;;;;;;1.23;0.90;;;;;;;;;;5027842;28;20207;-46
2021/10/07 11:32:23;;;;;;;1.00;0.90;;;;;;;;;;5027753;28;20302;-46
2021/10/07 11:35:06;;;;;;;0.68;0.68;;;;;;;;;;5016617;28;20475;-46
2021/10/07 11:37:51;;;;;;;0.70;0.70;;;;;;;;;;5017183;28;20173;-46
2021/10/07 11:40:19;;;;;;;1.38;0.80;;;;;;;;;;5017007;28;20584;-46
2021/10/07 11:42:45;;;;;;;0.70;0.68;;;;;;;;;;5023713;28;20310;-46
2021/10/07 11:45:21;;;;;;;0.70;0.70;;;;;;;;;;5032198;28;20679;-46
2021/10/07 11:47:49;;;;;;;0.70;0.70;;;;;;;;;;5016771;28;20202;-46
2021/10/07 11:50:16;;;;;;;0.80;0.80;;;;;;;;;;5017468;28;20204;-46
2021/10/07 11:52:42;;;;;;;1.30;0.60;;;;;;;;;;5021729;28;20225;-46
2021/10/07 11:55:08;;;;;;;0.80;0.80;;;;;;;;;;5034634;28;20216;-46
2021/10/07 11:57:34;;;;;;;0.82;0.68;;;;;;;;;;5035431;28;20536;-45
2021/10/07 12:00:00;;;;;;;0.60;0.60;;;;;;;;;;5029614;28;20190;-46
2021/10/07 12:02:26;;;;;;;1.48;0.85;;;;;;;;;;5036383;28;20192;-46
2021/10/07 12:05:12;;;;;;;0.95;0.70;;;;;;;;;;5020550;28;20184;-46
2021/10/07 12:07:38;;;;;;;1.20;0.90;;;;;;;;;;5035884;28;20180;-46
2021/10/07 12:10:04;;;;;;;2.10;0.73;;;;;;;;;;5022382;28;20472;-46
2021/10/07 12:12:30;;;;;;;1.05;0.70;;;;;;;;;;5016485;28;20185;-46
2021/10/07 12:14:56;;;;;;;1.60;0.90;;;;;;;;;;5030719;28;20203;-46
2021/10/07 12:17:24;;;;;;;1.20;0.75;;;;;;;;;;5036078;28;20172;-46
2021/10/07 12:19:50;;;;;;;1.27;0.90;;;;;;;;;;5035725;28;20283;-46
2021/10/07 12:22:26;;;;;;;0.68;0.65;;;;;;;;;;5033664;28;20179;-46
2021/10/07 12:24:57;;;;;;;1.35;1.00;;;;;;;;;;5034896;28;20634;-46
2021/10/07 12:27:31;;;;;;;1.42;0.88;;;;;;;;;;5036114;28;20178;-46
2021/10/07 12:30:03;;;;;;;0.88;0.82;;;;;;;;;;5033744;28;20251;-46
2021/10/07 12:32:29;;;;;;;1.13;0.80;;;;;;;;;;5033698;28;20258;-46
2021/10/07 12:34:56;;;;;;;1.05;0.80;;;;;;;;;;5030191;28;20218;-46
2021/10/07 12:37:27;;;;;;;2.05;0.93;;;;;;;;;;5022121;28;20236;-46
2021/10/07 12:39:53;;;;;;;1.52;0.70;;;;;;;;;;5026999;28;20451;-46
2021/10/07 12:42:19;;;;;;;1.63;0.70;;;;;;;;;;5028715;28;20173;-46
2021/10/07 12:44:47;;;;;;;1.27;0.60;;;;;;;;;;5034140;28;20188;-46
2021/10/07 12:47:17;;;;;;;1.23;0.88;;;;;;;;;;5033618;28;20488;-46
2021/10/07 12:49:43;;;;;;;0.68;0.68;;;;;;;;;;5034301;28;20194;-46
2021/10/07 12:52:16;;;;;;;1.10;0.90;;;;;;;;;;5029776;28;20176;-46
2021/10/07 12:54:49;;;;;;;0.90;0.70;;;;;;;;;;5023352;28;20172;-46
2021/10/07 12:57:35;;;;;;;1.63;0.70;;;;;;;;;;5015704;28;20169;-46
2021/10/07 13:00:02;;;;;;;0.70;0.70;;;;;;;;;;5022677;28;20203;-46
2021/10/07 13:02:32;;;;;;;1.98;0.90;;;;;;;;;;5019204;28;20184;-46
2021/10/07 13:04:58;;;;;;;1.13;0.73;;;;;;;;;;5028602;28;20171;-45
2021/10/07 13:07:25;;;;;;;1.40;0.60;;;;;;;;;;5035284;28;20168;-46
2021/10/07 13:09:52;;;;;;;0.73;0.60;;;;;;;;;;5030951;28;20209;-46
2021/10/07 13:12:18;;;;;;;0.80;0.80;;;;;;;;;;5016471;28;20466;-46
2021/10/07 13:14:54;;;;;;;1.50;0.98;;;;;;;;;;5014784;28;20200;-46
2021/10/07 13:17:20;;;;;;;1.08;0.80;;;;;;;;;;5015600;28;20242;-46
2021/10/07 13:19:46;;;;;;;1.17;0.90;;;;;;;;;;5015498;28;20560;-46
2021/10/07 13:22:12;;;;;;;0.70;0.70;;;;;;;;;;5015271;28;20180;-46
2021/10/07 13:24:38;;;;;;;1.10;0.90;;;;;;;;;;5026200;28;20456;-46
2021/10/07 13:27:09;;;;;;;1.52;0.88;;;;;;;;;;5034789;28;20211;-46
2021/10/07 13:29:35;;;;;;;0.63;0.63;;;;;;;;;;5025372;28;20175;-46
2021/10/07 13:32:01;;;;;;;1.30;0.73;;;;;;;;;;5020706;28;20610;-46
2021/10/07 13:34:27;;;;;;;2.03;1.10;;;;;;;;;;5033141;28;20464;-46
2021/10/07 13:36:53;;;;;;;2.20;1.05;;;;;;;;;;5034733;28;20172;-46
2021/10/07 13:39:19;;;;;;;2.40;0.90;;;;;;;;;;5034611;28;20187;-46
2021/10/07 13:41:45;;;;;;;0.98;0.73;;;;;;;;;;5033680;28;20191;-46
2021/10/07 13:44:11;;;;;;;1.05;0.95;;;;;;;;;;5031622;28;20317;-46
2021/10/07 13:46:37;;;;;;;1.23;1.00;;;;;;;;;;5026771;28;20173;-46
2021/10/07 13:49:04;;;;;;;1.00;0.80;;;;;;;;;;5014825;28;20173;-46
2021/10/07 13:51:30;;;;;;;1.38;0.93;;;;;;;;;;5014953;28;20211;-45
2021/10/07 13:53:57;;;;;;;0.80;0.77;;;;;;;;;;5016452;28;20172;-46
2021/10/07 13:56:23;;;;;;;1.80;0.70;;;;;;;;;;5034321;28;20174;-46
2021/10/07 13:58:49;;;;;;;2.75;1.08;;;;;;;;;;5018114;28;20176;-46
2021/10/07 14:01:15;;;;;;;0.73;0.70;;;;;;;;;;5016836;28;20199;-46
2021/10/07 14:03:41;;;;;;;0.82;0.80;;;;;;;;;;5031719;28;20187;-46
2021/10/07 14:06:07;;;;;;;1.17;1.00;;;;;;;;;;5032572;28;20610;-47
2021/10/07 14:08:33;;;;;;;1.15;0.82;;;;;;;;;;5029471;28;20551;-46
2021/10/07 14:11:05;;;;;;;1.88;0.77;;;;;;;;;;5033872;28;20192;-46
2021/10/07 14:13:32;;;;;;;1.70;0.80;;;;;;;;;;5028746;28;20191;-46
2021/10/07 14:15:58;;;;;;;1.35;1.00;;;;;;;;;;5014482;28;20212;-46
2021/10/07 14:18:24;;;;;;;1.13;0.90;;;;;;;;;;5014914;28;20208;-46
2021/10/07 14:20:50;;;;;;;1.70;0.90;;;;;;;;;;5029280;28;20266;-46
2021/10/07 14:23:16;;;;;;;0.70;0.70;;;;;;;;;;5033634;28;20171;-46
2021/10/07 14:25:42;;;;;;;1.63;0.80;;;;;;;;;;5028565;28;20268;-46
2021/10/07 14:28:08;;;;;;;0.93;0.82;;;;;;;;;;5014534;28;20417;-46
2021/10/07 14:30:35;;;;;;;1.35;0.88;;;;;;;;;;5014569;28;20266;-46
2021/10/07 14:33:01;;;;;;;1.27;0.70;;;;;;;;;;5015227;28;20188;-46
2021/10/07 14:35:28;;;;;;;2.03;0.90;;;;;;;;;;5018130;28;20235;-46
2021/10/07 14:37:54;;;;;;;0.80;0.80;;;;;;;;;;5030293;28;20180;-46
2021/10/07 14:40:21;;;;;;;1.80;0.80;;;;;;;;;;5038042;28;20314;-46
2021/10/07 14:42:48;;;;;;;1.10;1.00;;;;;;;;;;5036940;28;20179;-46
2021/10/07 14:45:14;;;;;;;1.65;0.70;;;;;;;;;;5023406;28;20516;-46
2021/10/07 14:47:40;;;;;;;0.70;0.70;;;;;;;;;;5018020;28;20499;-46
2021/10/07 14:50:07;;;;;;;1.08;0.82;;;;;;;;;;5030256;28;20265;-46